createdAt,value
2023-02-07T00:01:01.376Z,100319.97
2023-02-07T00:02:02.729Z,100324.16
2023-02-07T00:03:04.097Z,100328.75
2023-02-07T00:04:05.427Z,100333.75
2023-02-07T00:05:07.021Z,100327.94
2023-02-07T00:06:16.421Z,100338.13
2023-02-07T00:07:17.678Z,100331.91
2023-02-07T00:08:18.915Z,100324.66
2023-02-07T00:09:20.123Z,100327.00
2023-02-07T00:10:21.458Z,100330.63
2023-02-07T00:11:23.331Z,100332.19
2023-02-07T00:12:24.600Z,100331.53
2023-02-07T00:13:25.787Z,100333.78
2023-02-07T00:14:27.020Z,100335.19
2023-02-07T00:15:29.007Z,100327.31
2023-02-07T00:16:30.284Z,100326.28
2023-02-07T00:17:31.504Z,100324.09
2023-02-07T00:18:33.160Z,100331.28
2023-02-07T00:19:34.470Z,100334.53
2023-02-07T00:20:35.663Z,100333.09
2023-02-07T00:21:37.154Z,100333.78
2023-02-07T00:22:38.419Z,100335.75
2023-02-07T00:23:40.017Z,100332.72
2023-02-07T00:24:41.263Z,100342.25
2023-02-07T00:25:45.308Z,100338.03
2023-02-07T00:26:46.565Z,100335.44
2023-02-07T00:27:47.914Z,100343.88
2023-02-07T00:28:49.896Z,100332.38
2023-02-07T00:29:51.158Z,100335.53
2023-02-07T00:31:02.210Z,100332.28
2023-02-07T00:32:03.606Z,100324.97
2023-02-07T00:33:04.873Z,100326.13
2023-02-07T00:34:06.920Z,100326.31
2023-02-07T00:35:08.330Z,100330.88
2023-02-07T00:36:11.759Z,100328.72
2023-02-07T00:37:13.041Z,100310.28
2023-02-07T00:38:14.245Z,100325.69
2023-02-07T00:39:16.465Z,100325.63
2023-02-07T00:40:18.415Z,100327.47
2023-02-07T00:41:19.664Z,100324.72
2023-02-07T00:42:20.898Z,100329.91
2023-02-07T00:43:29.585Z,100330.81
2023-02-07T00:44:31.644Z,100326.53
2023-02-07T00:45:32.952Z,100318.84
2023-02-07T00:46:34.799Z,100323.41
2023-02-07T00:47:36.021Z,100322.97
2023-02-07T00:48:37.283Z,100329.13
2023-02-07T00:49:38.529Z,100332.56
2023-02-07T00:50:39.805Z,100329.06
2023-02-07T00:51:41.083Z,100327.19
2023-02-07T00:52:42.297Z,100316.78
2023-02-07T00:53:43.756Z,100317.50
2023-02-07T00:54:44.952Z,100302.84
2023-02-07T00:55:46.952Z,100314.47
2023-02-07T00:56:48.143Z,100306.19
2023-02-07T00:57:49.318Z,100313.19
2023-02-07T00:58:51.141Z,100311.06
2023-02-07T00:59:52.395Z,100313.09
2023-02-07T01:00:53.703Z,100323.53
2023-02-07T01:01:54.932Z,100317.88
2023-02-07T01:02:56.201Z,100320.91
2023-02-07T01:03:57.666Z,100326.47
2023-02-07T01:04:58.930Z,100324.41
2023-02-07T01:06:00.191Z,100332.63
2023-02-07T01:07:01.487Z,100334.75
2023-02-07T01:08:03.903Z,100320.94
2023-02-07T01:09:05.507Z,100324.50
2023-02-07T01:10:07.157Z,100333.03
2023-02-07T01:11:10.546Z,100324.34
2023-02-07T01:12:13.049Z,100332.97
2023-02-07T01:13:15.107Z,100334.03
2023-02-07T01:14:16.434Z,100332.88
2023-02-07T01:15:18.578Z,100339.78
2023-02-07T01:16:22.469Z,100349.13
2023-02-07T01:17:24.305Z,100350.00
2023-02-07T01:18:25.777Z,100358.09
2023-02-07T01:19:27.016Z,100351.47
2023-02-07T01:20:28.787Z,100353.59
2023-02-07T01:21:30.045Z,100361.59
2023-02-07T01:22:31.319Z,100372.09
2023-02-07T01:23:32.573Z,100366.28
2023-02-07T01:24:35.510Z,100363.41
2023-02-07T01:25:37.993Z,100369.59
2023-02-07T01:26:39.841Z,100365.63
2023-02-07T01:27:41.586Z,100367.41
2023-02-07T01:28:43.206Z,100369.22
2023-02-07T01:29:46.392Z,100365.00
2023-02-07T01:30:47.656Z,100362.41
2023-02-07T01:31:49.214Z,100374.06
2023-02-07T01:32:50.574Z,100367.06
2023-02-07T01:33:55.818Z,100356.41
2023-02-07T01:34:57.096Z,100358.00
2023-02-07T01:35:58.383Z,100357.38
2023-02-07T01:36:59.639Z,100356.41
2023-02-07T01:38:00.909Z,100354.69
2023-02-07T01:39:02.216Z,100352.34
2023-02-07T01:40:03.489Z,100346.16
2023-02-07T01:41:05.044Z,100350.00
2023-02-07T01:42:06.403Z,100337.97
2023-02-07T01:43:15.395Z,100348.31
2023-02-07T01:44:22.259Z,100347.78
2023-02-07T01:45:29.256Z,100352.25
2023-02-07T01:46:31.607Z,100346.97
2023-02-07T01:47:33.583Z,100354.25
2023-02-07T01:48:36.901Z,100348.78
2023-02-07T01:49:38.484Z,100356.84
2023-02-07T01:50:41.316Z,100358.00
2023-02-07T01:51:45.483Z,100356.41
2023-02-07T01:52:46.852Z,100347.31
2023-02-07T01:53:48.576Z,100343.38
2023-02-07T01:54:50.872Z,100341.78
2023-02-07T01:55:55.340Z,100340.25
2023-02-07T01:56:58.173Z,100340.78
2023-02-07T01:58:01.367Z,100338.19
2023-02-07T01:59:04.195Z,100339.59
2023-02-07T02:00:05.859Z,100338.63
2023-02-07T02:01:18.730Z,100339.88
2023-02-07T02:02:21.429Z,100344.38
2023-02-07T02:03:22.836Z,100347.31
2023-02-07T02:04:24.100Z,100344.38
2023-02-07T02:05:25.560Z,100343.38
2023-02-07T02:06:27.926Z,100346.59
2023-02-07T02:07:29.791Z,100346.59
2023-02-07T02:08:31.009Z,100347.69
2023-02-07T02:09:32.380Z,100341.41
2023-02-07T02:10:39.502Z,100343.31
2023-02-07T02:12:00.014Z,100343.56
2023-02-07T02:13:01.201Z,100340.84
2023-02-07T02:14:02.476Z,100331.53
2023-02-07T02:15:21.999Z,100342.13
2023-02-07T02:16:25.922Z,100338.53
2023-02-07T02:17:30.056Z,100331.25
2023-02-07T02:18:49.618Z,100332.59
2023-02-07T02:20:23.236Z,100330.09
2023-02-07T02:21:32.926Z,100327.50
2023-02-07T02:22:52.432Z,100333.50
2023-02-07T02:24:12.027Z,100332.06
2023-02-07T02:25:45.927Z,100326.84
2023-02-07T02:26:55.220Z,100338.72
2023-02-07T02:28:15.279Z,100337.81
2023-02-07T02:29:34.885Z,100336.84
2023-02-07T02:30:44.910Z,100334.78
2023-02-07T02:32:04.719Z,100335.19
2023-02-07T02:33:13.881Z,100330.44
2023-02-07T02:34:34.922Z,100330.97
2023-02-07T02:35:39.180Z,100334.22
2023-02-07T02:36:43.619Z,100335.47
2023-02-07T02:37:58.183Z,100334.84
2023-02-07T02:39:08.546Z,100330.19
2023-02-07T02:40:14.988Z,100320.84
2023-02-07T02:41:24.727Z,100332.59
2023-02-07T02:42:34.390Z,100329.09
2023-02-07T02:43:46.568Z,100333.31
2023-02-07T02:44:57.371Z,100322.44
2023-02-07T02:46:02.176Z,100322.03
2023-02-07T02:47:04.375Z,100327.97
2023-02-07T02:48:08.614Z,100325.16
2023-02-07T02:49:11.867Z,100332.16
2023-02-07T02:50:14.841Z,100337.78
2023-02-07T02:51:16.100Z,100341.38
2023-02-07T02:52:17.880Z,100345.69
2023-02-07T02:53:19.104Z,100343.81
2023-02-07T02:54:30.800Z,100348.84
2023-02-07T02:55:45.591Z,100346.84
2023-02-07T02:57:09.761Z,100343.81
2023-02-07T02:58:30.465Z,100351.63
2023-02-07T02:59:34.836Z,100352.16
2023-02-07T03:00:59.723Z,100347.09
2023-02-07T03:02:01.112Z,100359.22
2023-02-07T03:03:15.997Z,100358.94
2023-02-07T03:04:17.373Z,100359.13
2023-02-07T03:05:21.320Z,100361.56
2023-02-07T03:06:30.545Z,100358.69
2023-02-07T03:07:31.765Z,100370.75
2023-02-07T03:08:36.016Z,100367.53
2023-02-07T03:09:49.259Z,100357.88
2023-02-07T03:10:57.260Z,100364.44
2023-02-07T03:12:13.581Z,100363.88
2023-02-07T03:13:25.115Z,100360.63
2023-02-07T03:14:33.823Z,100369.34
2023-02-07T03:15:48.916Z,100371.00
2023-02-07T03:17:00.954Z,100367.97
2023-02-07T03:18:08.611Z,100363.03
2023-02-07T03:19:13.863Z,100361.06
2023-02-07T03:20:38.771Z,100373.59
2023-02-07T03:22:00.232Z,100372.22
2023-02-07T03:23:02.660Z,100370.84
2023-02-07T03:24:16.000Z,100370.09
2023-02-07T03:25:17.776Z,100363.09
2023-02-07T03:26:21.991Z,100361.78
2023-02-07T03:27:28.636Z,100360.44
2023-02-07T03:28:31.322Z,100366.69
2023-02-07T03:29:35.469Z,100368.19
2023-02-07T03:30:37.792Z,100366.56
2023-02-07T03:31:40.991Z,100369.69
2023-02-07T03:32:43.796Z,100365.66
2023-02-07T03:33:47.378Z,100372.47
2023-02-07T03:34:57.928Z,100373.78
2023-02-07T03:36:07.067Z,100377.94
2023-02-07T03:37:13.886Z,100383.84
2023-02-07T03:38:15.369Z,100378.47
2023-02-07T03:39:16.832Z,100373.97
2023-02-07T03:40:18.782Z,100371.19
2023-02-07T03:41:32.941Z,100367.38
2023-02-07T03:42:44.022Z,100370.16
2023-02-07T03:43:45.932Z,100358.38
2023-02-07T03:44:47.927Z,100358.38
2023-02-07T03:45:49.209Z,100361.31
2023-02-07T03:46:50.704Z,100365.56
2023-02-07T03:47:51.916Z,100362.28
2023-02-07T03:48:53.156Z,100360.16
2023-02-07T03:49:54.510Z,100361.44
2023-02-07T03:50:55.711Z,100361.78
2023-02-07T03:51:56.947Z,100362.94
2023-02-07T03:52:58.186Z,100368.31
2023-02-07T03:53:59.503Z,100366.69
2023-02-07T03:55:00.756Z,100368.31
2023-02-07T03:56:01.996Z,100363.28
2023-02-07T03:57:03.302Z,100367.38
2023-02-07T03:58:04.543Z,100363.34
2023-02-07T03:59:05.914Z,100365.31
2023-02-07T04:00:07.959Z,100363.22
2023-02-07T04:01:15.323Z,100361.25
2023-02-07T04:02:16.586Z,100359.63
2023-02-07T04:03:17.863Z,100367.13
2023-02-07T04:04:19.356Z,100355.13
2023-02-07T04:05:20.716Z,100355.47
2023-02-07T04:06:22.291Z,100361.97
2023-02-07T04:07:23.549Z,100354.19
2023-02-07T04:08:24.745Z,100352.88
2023-02-07T04:09:25.996Z,100348.03
2023-02-07T04:10:27.203Z,100348.56
2023-02-07T04:11:28.413Z,100342.19
2023-02-07T04:12:29.642Z,100337.38
2023-02-07T04:13:30.932Z,100341.56
2023-02-07T04:14:32.456Z,100335.72
2023-02-07T04:15:33.691Z,100346.91
2023-02-07T04:16:35.015Z,100339.78
2023-02-07T04:17:36.348Z,100341.72
2023-02-07T04:18:37.532Z,100349.69
2023-02-07T04:19:38.792Z,100350.84
2023-02-07T04:20:40.035Z,100350.38
2023-02-07T04:21:41.376Z,100346.00
2023-02-07T04:22:42.572Z,100348.59
2023-02-07T04:23:43.835Z,100347.78
2023-02-07T04:24:45.071Z,100346.31
2023-02-07T04:25:46.307Z,100344.91
2023-02-07T04:26:49.101Z,100350.41
2023-02-07T04:27:50.379Z,100354.00
2023-02-07T04:28:51.626Z,100353.00
2023-02-07T04:29:52.842Z,100343.63
2023-02-07T04:30:54.127Z,100338.75
2023-02-07T04:31:57.351Z,100343.50
2023-02-07T04:32:59.871Z,100342.69
2023-02-07T04:34:01.083Z,100342.69
2023-02-07T04:35:02.307Z,100342.84
2023-02-07T04:36:04.261Z,100336.84
2023-02-07T04:37:05.476Z,100340.44
2023-02-07T04:38:06.700Z,100341.84
2023-02-07T04:39:07.900Z,100340.03
2023-02-07T04:40:09.472Z,100342.81
2023-02-07T04:41:10.813Z,100343.00
2023-02-07T04:42:12.303Z,100344.13
2023-02-07T04:43:13.531Z,100335.81
2023-02-07T04:44:14.783Z,100341.81
2023-02-07T04:45:16.084Z,100350.59
2023-02-07T04:46:17.306Z,100353.38
2023-02-07T04:47:18.542Z,100351.09
2023-02-07T04:48:19.965Z,100354.63
2023-02-07T04:49:21.266Z,100352.03
2023-02-07T04:50:22.493Z,100352.38
2023-02-07T04:51:24.326Z,100351.72
2023-02-07T04:52:25.533Z,100356.13
2023-02-07T04:53:26.734Z,100345.09
2023-02-07T04:54:27.991Z,100346.38
2023-02-07T04:55:29.247Z,100354.31
2023-02-07T04:56:30.681Z,100354.28
2023-02-07T04:57:31.963Z,100346.69
2023-02-07T04:58:33.594Z,100354.00
2023-02-07T04:59:34.853Z,100355.31
2023-02-07T05:00:36.129Z,100354.84
2023-02-07T05:01:37.350Z,100353.53
2023-02-07T05:02:38.545Z,100353.81
2023-02-07T05:03:39.813Z,100353.38
2023-02-07T05:04:41.077Z,100346.09
2023-02-07T05:05:43.136Z,100349.03
2023-02-07T05:06:44.364Z,100353.06
2023-02-07T05:07:45.610Z,100348.22
2023-02-07T05:08:46.894Z,100341.41
2023-02-07T05:09:48.084Z,100346.31
2023-02-07T05:10:53.764Z,100347.63
2023-02-07T05:11:55.023Z,100344.38
2023-02-07T05:12:56.259Z,100346.00
2023-02-07T05:13:57.520Z,100345.34
2023-02-07T05:14:59.392Z,100347.94
2023-02-07T05:16:03.784Z,100346.16
2023-02-07T05:17:05.063Z,100347.78
2023-02-07T05:18:06.316Z,100351.50
2023-02-07T05:19:07.517Z,100351.50
2023-02-07T05:20:08.963Z,100351.03
2023-02-07T05:21:10.193Z,100349.22
2023-02-07T05:22:11.384Z,100349.69
2023-02-07T05:23:12.767Z,100340.31
2023-02-07T05:24:14.083Z,100340.00
2023-02-07T05:25:15.583Z,100342.41
2023-02-07T05:26:16.844Z,100333.84
2023-02-07T05:27:18.094Z,100336.56
2023-02-07T05:28:19.415Z,100338.53
2023-02-07T05:29:20.670Z,100340.97
2023-02-07T05:30:22.026Z,100340.16
2023-02-07T05:31:23.420Z,100340.66
2023-02-07T05:32:24.832Z,100333.22
2023-02-07T05:33:26.076Z,100336.63
2023-02-07T05:34:27.284Z,100340.34
2023-02-07T05:35:28.725Z,100330.16
2023-02-07T05:36:30.005Z,100334.69
2023-02-07T05:37:31.275Z,100336.16
2023-02-07T05:38:32.570Z,100334.47
2023-02-07T05:39:33.783Z,100335.31
2023-02-07T05:40:36.014Z,100345.03
2023-02-07T05:41:37.503Z,100335.16
2023-02-07T05:42:39.401Z,100342.97
2023-02-07T05:43:40.687Z,100341.16
2023-02-07T05:44:41.914Z,100335.47
2023-02-07T05:45:43.115Z,100346.03
2023-02-07T05:46:44.432Z,100340.84
2023-02-07T05:47:45.630Z,100339.84
2023-02-07T05:48:46.828Z,100334.38
2023-02-07T05:49:48.093Z,100341.16
2023-02-07T05:50:49.355Z,100343.13
2023-02-07T05:51:50.879Z,100342.66
2023-02-07T05:52:52.379Z,100340.06
2023-02-07T05:53:53.625Z,100342.31
2023-02-07T05:54:54.868Z,100348.31
2023-02-07T05:55:56.345Z,100349.94
2023-02-07T05:56:57.676Z,100351.25
2023-02-07T05:57:59.027Z,100351.41
2023-02-07T05:59:00.390Z,100348.81
2023-02-07T06:00:01.863Z,100344.13
2023-02-07T06:01:13.104Z,100349.81
2023-02-07T06:02:14.378Z,100349.31
2023-02-07T06:03:15.801Z,100351.44
2023-02-07T06:04:17.136Z,100351.28
2023-02-07T06:05:18.867Z,100351.63
2023-02-07T06:06:20.216Z,100356.19
2023-02-07T06:07:21.467Z,100351.13
2023-02-07T06:08:22.710Z,100347.09
2023-02-07T06:09:23.971Z,100348.22
2023-02-07T06:10:25.264Z,100341.75
2023-02-07T06:11:26.480Z,100343.72
2023-02-07T06:12:27.752Z,100333.34
2023-02-07T06:13:29.099Z,100340.31
2023-02-07T06:14:30.304Z,100334.31
2023-02-07T06:15:31.576Z,100324.94
2023-02-07T06:16:32.785Z,100326.84
2023-02-07T06:17:34.007Z,100311.44
2023-02-07T06:18:35.200Z,100327.00
2023-02-07T06:19:36.449Z,100336.41
2023-02-07T06:20:37.634Z,100327.16
2023-02-07T06:21:46.532Z,100326.66
2023-02-07T06:22:48.272Z,100329.94
2023-02-07T06:23:49.553Z,100331.84
2023-02-07T06:24:50.816Z,100329.09
2023-02-07T06:25:53.161Z,100319.69
2023-02-07T06:26:54.421Z,100319.84
2023-02-07T06:27:55.713Z,100324.38
2023-02-07T06:28:56.970Z,100328.59
2023-02-07T06:29:58.190Z,100326.00
2023-02-07T06:30:59.494Z,100334.13
2023-02-07T06:32:00.760Z,100334.59
2023-02-07T06:33:01.991Z,100334.75
2023-02-07T06:34:03.244Z,100336.56
2023-02-07T06:35:05.216Z,100343.34
2023-02-07T06:36:06.619Z,100349.34
2023-02-07T06:37:08.264Z,100344.50
2023-02-07T06:38:09.587Z,100350.81
2023-02-07T06:39:11.470Z,100344.03
2023-02-07T06:40:12.697Z,100341.59
2023-02-07T06:41:13.969Z,100351.47
2023-02-07T06:42:15.203Z,100356.31
2023-02-07T06:43:16.433Z,100357.94
2023-02-07T06:44:17.678Z,100357.94
2023-02-07T06:45:18.889Z,100362.50
2023-02-07T06:46:20.169Z,100360.38
2023-02-07T06:47:21.464Z,100358.91
2023-02-07T06:48:22.744Z,100353.72
2023-02-07T06:49:23.994Z,100355.88
2023-02-07T06:50:25.241Z,100357.63
2023-02-07T06:51:26.527Z,100362.50
2023-02-07T06:52:27.763Z,100358.09
2023-02-07T06:53:29.013Z,100361.16
2023-02-07T06:54:30.280Z,100368.94
2023-02-07T06:55:32.722Z,100368.94
2023-02-07T06:56:33.960Z,100366.69
2023-02-07T06:57:35.243Z,100368.13
2023-02-07T06:58:36.506Z,100359.34
2023-02-07T06:59:37.725Z,100366.34
2023-02-07T07:00:38.977Z,100371.38
2023-02-07T07:01:40.302Z,100369.09
2023-02-07T07:02:41.582Z,100380.75
2023-02-07T07:03:42.852Z,100369.38
2023-02-07T07:04:44.045Z,100372.97
2023-02-07T07:05:45.545Z,100374.44
2023-02-07T07:06:46.867Z,100377.84
2023-02-07T07:07:48.633Z,100375.88
2023-02-07T07:08:49.842Z,100375.88
2023-02-07T07:09:51.098Z,100379.28
2023-02-07T07:10:52.665Z,100378.00
2023-02-07T07:11:53.916Z,100383.69
2023-02-07T07:12:55.170Z,100378.50
2023-02-07T07:13:56.451Z,100376.56
2023-02-07T07:14:57.727Z,100372.34
2023-02-07T07:15:59.095Z,100370.56
2023-02-07T07:17:00.321Z,100373.66
2023-02-07T07:18:02.652Z,100387.94
2023-02-07T07:19:03.906Z,100387.13
2023-02-07T07:20:05.603Z,100383.38
2023-02-07T07:21:06.896Z,100390.34
2023-02-07T07:22:08.098Z,100395.41
2023-02-07T07:23:09.352Z,100392.31
2023-02-07T07:24:10.652Z,100397.69
2023-02-07T07:25:12.140Z,100392.16
2023-02-07T07:26:13.622Z,100397.81
2023-02-07T07:27:14.825Z,100395.72
2023-02-07T07:28:16.057Z,100399.75
2023-02-07T07:29:18.487Z,100401.72
2023-02-07T07:30:19.822Z,100399.28
2023-02-07T07:31:21.106Z,100392.50
2023-02-07T07:33:43.668Z,100390.72
2023-02-07T07:34:44.896Z,100386.47
2023-02-07T07:35:46.118Z,100385.53
2023-02-07T07:36:47.380Z,100385.66
2023-02-07T07:37:48.608Z,100389.19
2023-02-07T07:38:51.274Z,100385.63
2023-02-07T07:39:53.532Z,100384.00
2023-02-07T07:40:54.734Z,100380.59
2023-02-07T07:41:56.078Z,100379.59
2023-02-07T07:43:22.660Z,100382.66
2023-02-07T07:44:24.353Z,100386.19
2023-02-07T07:45:25.599Z,100381.84
2023-02-07T07:46:26.882Z,100380.56
2023-02-07T07:47:28.158Z,100377.78
2023-02-07T07:48:29.486Z,100376.97
2023-02-07T07:49:30.774Z,100371.78
2023-02-07T07:50:32.017Z,100381.00
2023-02-07T07:51:33.255Z,100379.06
2023-02-07T07:52:34.497Z,100378.75
2023-02-07T07:53:36.226Z,100379.88
2023-02-07T07:54:37.455Z,100385.69
2023-02-07T07:55:38.644Z,100379.88
2023-02-07T07:56:39.881Z,100384.38
2023-02-07T07:57:41.190Z,100386.84
2023-02-07T07:58:42.383Z,100393.78
2023-02-07T07:59:43.588Z,100391.16
2023-02-07T08:00:44.908Z,100396.34
2023-02-07T08:01:46.208Z,100400.22
2023-02-07T08:02:47.451Z,100401.66
2023-02-07T08:03:48.757Z,100398.56
2023-02-07T08:04:50.277Z,100408.50
2023-02-07T08:05:51.603Z,100403.16
2023-02-07T08:06:52.819Z,100404.63
2023-02-07T08:07:54.056Z,100400.91
2023-02-07T08:08:55.317Z,100405.31
2023-02-07T08:09:56.517Z,100412.75
2023-02-07T08:11:01.308Z,100421.00
2023-02-07T08:12:02.591Z,100410.00
2023-02-07T08:13:04.446Z,100418.41
2023-02-07T08:14:05.688Z,100426.31
2023-02-07T08:15:07.105Z,100430.41
2023-02-07T08:16:08.378Z,100431.91
2023-02-07T08:17:09.644Z,100432.69
2023-02-07T08:18:10.932Z,100430.75
2023-02-07T08:19:12.173Z,100438.03
2023-02-07T08:20:13.383Z,100438.13
2023-02-07T08:21:14.632Z,100431.16
2023-02-07T08:22:15.846Z,100436.66
2023-02-07T08:23:17.164Z,100441.84
2023-02-07T08:24:18.549Z,100437.47
2023-02-07T08:25:19.839Z,100442.78
2023-02-07T08:26:21.057Z,100456.75
2023-02-07T08:27:22.331Z,100450.25
2023-02-07T08:28:23.644Z,100451.22
2023-02-07T08:29:24.941Z,100460.97
2023-02-07T08:30:26.353Z,100460.78
2023-02-07T08:31:27.808Z,100460.44
2023-02-07T08:32:29.150Z,100468.88
2023-02-07T08:33:30.605Z,100452.94
2023-02-07T08:34:31.872Z,100458.63
2023-02-07T08:35:33.124Z,100458.16
2023-02-07T08:36:34.344Z,100459.63
2023-02-07T08:37:35.600Z,100453.44
2023-02-07T08:38:37.312Z,100464.81
2023-02-07T08:39:38.557Z,100461.84
2023-02-07T08:40:40.151Z,100463.47
2023-02-07T08:41:41.658Z,100458.75
2023-02-07T08:42:42.868Z,100457.31
2023-02-07T08:43:44.112Z,100462.00
2023-02-07T08:44:45.356Z,100450.88
2023-02-07T08:45:48.169Z,100458.03
2023-02-07T08:46:49.466Z,100457.41
2023-02-07T08:47:50.731Z,100455.97
2023-02-07T08:48:51.985Z,100451.09
2023-02-07T08:49:53.298Z,100450.91
2023-02-07T08:50:54.816Z,100443.59
2023-02-07T08:51:56.064Z,100450.53
2023-02-07T08:52:57.361Z,100437.50
2023-02-07T08:53:58.660Z,100437.09
2023-02-07T08:54:59.880Z,100431.56
2023-02-07T08:56:01.071Z,100432.06
2023-02-07T08:57:02.343Z,100439.25
2023-02-07T08:58:03.605Z,100424.09
2023-02-07T08:59:04.853Z,100427.16
2023-02-07T09:00:06.742Z,100419.50
2023-02-07T09:01:08.015Z,100425.78
2023-02-07T09:02:10.822Z,100431.59
2023-02-07T09:03:13.638Z,100430.97
2023-02-07T09:04:15.645Z,100427.72
2023-02-07T09:05:17.012Z,100441.38
2023-02-07T09:06:18.242Z,100439.69
2023-02-07T09:07:19.485Z,100437.38
2023-02-07T09:08:20.712Z,100431.69
2023-02-07T09:09:21.976Z,100432.16
2023-02-07T09:10:23.182Z,100436.50
2023-02-07T09:11:24.480Z,100432.38
2023-02-07T09:12:26.138Z,100433.13
2023-02-07T09:13:27.717Z,100436.25
2023-02-07T09:14:28.966Z,100432.03
2023-02-07T09:15:30.598Z,100426.53
2023-02-07T09:16:31.882Z,100426.09
2023-02-07T09:17:33.196Z,100429.25
2023-02-07T09:18:34.478Z,100432.66
2023-02-07T09:19:36.340Z,100431.38
2023-02-07T09:20:38.024Z,100425.03
2023-02-07T09:21:40.482Z,100431.56
2023-02-07T09:22:41.829Z,100423.59
2023-02-07T09:23:43.156Z,100431.13
2023-02-07T09:24:44.398Z,100433.84
2023-02-07T09:25:46.601Z,100439.41
2023-02-07T09:26:47.805Z,100436.00
2023-02-07T09:27:49.723Z,100442.91
2023-02-07T09:28:50.972Z,100444.09
2023-02-07T09:29:52.248Z,100437.88
2023-02-07T09:30:53.827Z,100439.69
2023-02-07T09:31:55.416Z,100438.50
2023-02-07T09:32:57.152Z,100438.78
2023-02-07T09:33:58.415Z,100441.94
2023-02-07T09:34:59.667Z,100435.75
2023-02-07T09:36:00.918Z,100442.38
2023-02-07T09:37:02.113Z,100439.88
2023-02-07T09:38:03.466Z,100446.25
2023-02-07T09:39:05.745Z,100444.81
2023-02-07T09:40:07.227Z,100443.19
2023-02-07T09:41:16.200Z,100449.03
2023-02-07T09:42:17.377Z,100447.44
2023-02-07T09:43:25.537Z,100450.31
2023-02-07T09:44:47.526Z,100447.69
2023-02-07T09:45:53.930Z,100446.50
2023-02-07T09:46:59.840Z,100443.09
2023-02-07T09:48:06.061Z,100448.06
2023-02-07T09:49:26.086Z,100443.91
2023-02-07T09:50:30.517Z,100454.00
2023-02-07T09:51:32.914Z,100441.59
2023-02-07T09:52:37.096Z,100440.97
2023-02-07T09:53:42.836Z,100440.16
2023-02-07T09:54:46.599Z,100446.78
2023-02-07T09:55:53.861Z,100441.69
2023-02-07T09:56:57.298Z,100443.91
2023-02-07T09:58:02.007Z,100441.13
2023-02-07T09:59:15.637Z,100443.31
2023-02-07T10:00:28.133Z,100440.31
2023-02-07T10:01:32.502Z,100440.44
2023-02-07T10:02:41.533Z,100438.34
2023-02-07T10:03:46.139Z,100445.63
2023-02-07T10:04:48.452Z,100438.53
2023-02-07T10:06:09.191Z,100439.94
2023-02-07T10:07:18.447Z,100452.19
2023-02-07T10:08:19.777Z,100447.16
2023-02-07T10:09:27.521Z,100459.28
2023-02-07T10:10:37.898Z,100457.31
2023-02-07T10:11:48.270Z,100459.91
2023-02-07T10:13:00.131Z,100455.50
2023-02-07T10:14:15.270Z,100455.50
2023-02-07T10:15:19.560Z,100453.88
2023-02-07T10:16:45.798Z,100459.53
2023-02-07T10:17:52.149Z,100463.59
2023-02-07T10:19:07.257Z,100465.28
2023-02-07T10:20:27.545Z,100466.19
2023-02-07T10:21:35.869Z,100453.75
2023-02-07T10:22:54.857Z,100457.19
2023-02-07T10:23:56.079Z,100467.97
2023-02-07T10:25:10.951Z,100472.66
2023-02-07T10:26:19.460Z,100460.59
2023-02-07T10:27:30.436Z,100472.66
2023-02-07T10:28:48.963Z,100470.47
2023-02-07T10:30:03.280Z,100465.91
2023-02-07T10:31:10.290Z,100460.00
2023-02-07T10:32:18.715Z,100455.53
2023-02-07T10:33:21.758Z,100457.16
2023-02-07T10:34:24.317Z,100457.34
2023-02-07T10:35:30.304Z,100462.19
2023-02-07T10:36:33.276Z,100461.00
2023-02-07T10:37:37.268Z,100457.25
2023-02-07T10:38:43.864Z,100460.41
2023-02-07T10:40:05.345Z,100454.75
2023-02-07T10:41:11.073Z,100459.16
2023-02-07T10:42:14.787Z,100456.56
2023-02-07T10:43:29.573Z,100462.53
2023-02-07T10:44:30.933Z,100459.31
2023-02-07T10:45:32.535Z,100462.06
2023-02-07T10:46:34.720Z,100463.38
2023-02-07T10:47:38.717Z,100465.38
2023-02-07T10:48:39.966Z,100465.38
2023-02-07T10:49:41.379Z,100464.84
2023-02-07T10:50:43.376Z,100471.66
2023-02-07T10:51:45.488Z,100464.53
2023-02-07T10:52:52.253Z,100463.72
2023-02-07T10:54:05.564Z,100470.56
2023-02-07T10:55:09.084Z,100469.94
2023-02-07T10:56:17.967Z,100463.09
2023-02-07T10:57:19.903Z,100463.38
2023-02-07T10:58:24.544Z,100457.31
2023-02-07T10:59:34.923Z,100463.19
2023-02-07T11:00:37.106Z,100468.84
2023-02-07T11:01:39.399Z,100460.19
2023-02-07T11:02:47.044Z,100464.47
2023-02-07T11:03:48.554Z,100461.69
2023-02-07T11:04:49.887Z,100467.09
2023-02-07T11:05:52.960Z,100462.47
2023-02-07T11:07:01.617Z,100460.94
2023-02-07T11:08:16.964Z,100459.94
2023-02-07T11:09:22.952Z,100456.94
2023-02-07T11:10:25.696Z,100453.84
2023-02-07T11:11:29.445Z,100459.44
2023-02-07T11:12:30.826Z,100457.03
2023-02-07T11:13:44.760Z,100456.28
2023-02-07T11:15:02.796Z,100462.06
2023-02-07T11:16:08.627Z,100466.66
2023-02-07T11:17:19.319Z,100464.91
2023-02-07T11:18:31.185Z,100463.53
2023-02-07T11:19:32.495Z,100475.28
2023-02-07T11:20:38.872Z,100466.03
2023-02-07T11:21:41.995Z,100473.06
2023-02-07T11:22:43.376Z,100466.63
2023-02-07T11:23:44.723Z,100461.03
2023-02-07T11:24:46.729Z,100473.34
2023-02-07T11:25:48.597Z,100462.09
2023-02-07T11:26:55.525Z,100462.53
2023-02-07T11:27:57.014Z,100455.66
2023-02-07T11:29:18.296Z,100458.13
2023-02-07T11:30:20.813Z,100455.34
2023-02-07T11:31:30.475Z,100455.53
2023-02-07T11:32:31.915Z,100462.56
2023-02-07T11:33:34.617Z,100460.97
2023-02-07T11:34:47.740Z,100458.38
2023-02-07T11:36:01.333Z,100464.47
2023-02-07T11:37:11.269Z,100460.22
2023-02-07T11:38:13.621Z,100463.47
2023-02-07T11:39:18.034Z,100468.88
2023-02-07T11:40:19.226Z,100461.03
2023-02-07T11:41:31.375Z,100464.66
2023-02-07T11:42:32.617Z,100463.03
2023-02-07T11:43:34.676Z,100459.38
2023-02-07T11:44:40.798Z,100458.00
2023-02-07T11:45:47.244Z,100463.88
2023-02-07T11:46:49.368Z,100465.97
2023-02-07T11:47:53.060Z,100463.16
2023-02-07T11:48:56.069Z,100465.78
2023-02-07T11:50:02.742Z,100452.28
2023-02-07T11:51:06.219Z,100461.94
2023-02-07T11:52:08.220Z,100451.94
2023-02-07T11:53:19.365Z,100453.94
2023-02-07T11:54:20.687Z,100453.81
2023-02-07T11:55:24.676Z,100452.81
2023-02-07T11:56:34.874Z,100449.41
2023-02-07T11:57:36.236Z,100443.19
2023-02-07T11:58:40.776Z,100452.03
2023-02-07T12:00:00.677Z,100440.97
2023-02-07T12:01:05.997Z,100442.34
2023-02-07T12:02:16.190Z,100443.94
2023-02-07T12:03:24.911Z,100440.31
2023-02-07T12:04:27.912Z,100441.19
2023-02-07T12:05:31.891Z,100442.81
2023-02-07T12:06:39.995Z,100441.78
2023-02-07T12:07:43.594Z,100441.41
2023-02-07T12:08:44.976Z,100442.47